JBU165 KBOS-KRSW
Flight info
| Callsign | JBU165 |
|---|---|
| Flight time | N/A |
| Altitude | 36000 |
| Route | SSOXS7 SSOXS Q167 RIFLE HEADI Q97 KALDA Q131 WAALT Y289 BAHAA HIBAC SHFTY6 |
| Aircraft | A321/M-SDE3FGHIRWY/LB1 |
Departure
| Time | 2026-05-07 18:55 |
|---|---|
| Airport | Boston Logan International Airport (KBOS) |
Arrival
| Time | N/A |
|---|---|
| Airport | Southwest Florida International Airport (KRSW) |
| Time | Latitude | Longitude | Altitude | Speed | Heading |
|---|---|---|---|---|---|
| 2026-05-07 18:17 | 42.36572 | -71.01381 | 31 ft | 0 kts | 298° |
| 2026-05-07 18:46 | 42.36565 | -71.01363 | 31 ft | 4 kts | 298° |
| 2026-05-07 18:46 | 42.36555 | -71.01337 | 31 ft | 4 kts | 278° |
| 2026-05-07 18:46 | 42.36562 | -71.01310 | 31 ft | 4 kts | 219° |
| 2026-05-07 18:46 | 42.36583 | -71.01295 | 31 ft | 4 kts | 200° |
| 2026-05-07 18:47 | 42.36609 | -71.01283 | 31 ft | 4 kts | 197° |
| 2026-05-07 18:47 | 42.36629 | -71.01274 | 31 ft | 5 kts | 196° |
| 2026-05-07 18:47 | 42.36634 | -71.01273 | 31 ft | 2 kts | 196° |
| 2026-05-07 18:49 | 42.36629 | -71.01274 | 31 ft | 2 kts | 196° |
| 2026-05-07 18:49 | 42.36603 | -71.01286 | 31 ft | 6 kts | 199° |
| 2026-05-07 18:50 | 42.36553 | -71.01312 | 31 ft | 10 kts | 204° |
| 2026-05-07 18:50 | 42.36479 | -71.01359 | 31 ft | 14 kts | 203° |
| 2026-05-07 18:50 | 42.36379 | -71.01381 | 31 ft | 17 kts | 150° |
| 2026-05-07 18:50 | 42.36301 | -71.01246 | 31 ft | 20 kts | 121° |
| 2026-05-07 18:51 | 42.36233 | -71.01067 | 31 ft | 23 kts | 115° |
| 2026-05-07 18:51 | 42.36164 | -71.00863 | 31 ft | 18 kts | 113° |
| 2026-05-07 18:51 | 42.36150 | -71.00819 | 31 ft | 0 kts | 113° |
| 2026-05-07 18:51 | 42.36146 | -71.00807 | 31 ft | 4 kts | 113° |
| 2026-05-07 18:52 | 42.36130 | -71.00751 | 31 ft | 9 kts | 111° |
| 2026-05-07 18:52 | 42.36099 | -71.00636 | 31 ft | 17 kts | 109° |
| 2026-05-07 18:52 | 42.36056 | -71.00464 | 31 ft | 22 kts | 109° |
| 2026-05-07 18:52 | 42.36001 | -71.00250 | 31 ft | 26 kts | 109° |
| 2026-05-07 18:53 | 42.35918 | -71.00032 | 31 ft | 13 kts | 134° |
| 2026-05-07 18:53 | 42.35900 | -71.00008 | 31 ft | 3 kts | 136° |
| 2026-05-07 18:53 | 42.35851 | -70.99944 | 31 ft | 16 kts | 135° |
| 2026-05-07 18:53 | 42.35753 | -70.99813 | 31 ft | 21 kts | 135° |
| 2026-05-07 18:54 | 42.35640 | -70.99663 | 31 ft | 24 kts | 135° |
| 2026-05-07 18:54 | 42.35512 | -70.99492 | 31 ft | 27 kts | 128° |
| 2026-05-07 18:54 | 42.35538 | -70.99293 | 31 ft | 23 kts | 351° |
| 2026-05-07 18:54 | 42.35684 | -70.99463 | 31 ft | 46 kts | 314° |
| 2026-05-07 18:55 | 42.36090 | -71.00002 | 28 ft | 116 kts | 315° |
| 2026-05-07 18:55 | 42.36794 | -71.00943 | 76 ft | 165 kts | 313° |
| 2026-05-07 18:55 | 42.37649 | -71.02010 | 761 ft | 168 kts | 315° |
| 2026-05-07 18:55 | 42.38576 | -71.03046 | 1578 ft | 176 kts | 317° |
| 2026-05-07 18:56 | 42.39302 | -71.04360 | 2176 ft | 184 kts | 289° |
| 2026-05-07 18:56 | 42.39779 | -71.06049 | 2531 ft | 202 kts | 295° |
| 2026-05-07 18:56 | 42.40414 | -71.07874 | 2769 ft | 226 kts | 290° |
| 2026-05-07 18:56 | 42.40667 | -71.10060 | 3066 ft | 247 kts | 266° |
| 2026-05-07 18:57 | 42.40148 | -71.12294 | 3687 ft | 255 kts | 243° |
| 2026-05-07 18:57 | 42.39133 | -71.14271 | 4412 ft | 256 kts | 236° |
| 2026-05-07 18:57 | 42.38054 | -71.16215 | 4867 ft | 261 kts | 236° |
| 2026-05-07 18:57 | 42.36918 | -71.18170 | 5506 ft | 266 kts | 229° |
| 2026-05-07 18:58 | 42.35397 | -71.19601 | 6251 ft | 272 kts | 205° |
| 2026-05-07 18:58 | 42.33513 | -71.19976 | 6880 ft | 282 kts | 178° |
| 2026-05-07 18:58 | 42.31624 | -71.19283 | 7539 ft | 289 kts | 164° |
| 2026-05-07 18:58 | 42.29723 | -71.18265 | 8172 ft | 292 kts | 165° |
| 2026-05-07 18:59 | 42.27824 | -71.17253 | 8757 ft | 295 kts | 166° |
| 2026-05-07 18:59 | 42.25930 | -71.16226 | 9339 ft | 302 kts | 162° |
| 2026-05-07 18:59 | 42.24156 | -71.14599 | 9903 ft | 315 kts | 148° |
| 2026-05-07 18:59 | 42.22480 | -71.12617 | 10323 ft | 325 kts | 146° |
| 2026-05-07 19:00 | 42.20757 | -71.10545 | 10576 ft | 339 kts | 146° |
| 2026-05-07 19:00 | 42.18949 | -71.08393 | 10795 ft | 354 kts | 147° |
| 2026-05-07 19:00 | 42.17058 | -71.06166 | 10987 ft | 368 kts | 147° |
| 2026-05-07 19:00 | 42.15069 | -71.03902 | 11171 ft | 379 kts | 150° |
| 2026-05-07 19:01 | 42.12899 | -71.01810 | 11434 ft | 387 kts | 153° |
| 2026-05-07 19:01 | 42.10678 | -70.99735 | 11911 ft | 390 kts | 154° |
| 2026-05-07 19:01 | 42.08442 | -70.97652 | 12476 ft | 391 kts | 154° |
| 2026-05-07 19:01 | 42.06205 | -70.95567 | 13036 ft | 392 kts | 155° |
| 2026-05-07 19:02 | 42.03957 | -70.93470 | 13571 ft | 394 kts | 155° |
| 2026-05-07 19:02 | 42.01697 | -70.91366 | 14030 ft | 396 kts | 155° |
| 2026-05-07 19:02 | 41.99425 | -70.89252 | 14491 ft | 398 kts | 155° |
| 2026-05-07 19:02 | 41.97148 | -70.87137 | 14941 ft | 399 kts | 155° |
| 2026-05-07 19:03 | 41.94854 | -70.85009 | 15403 ft | 401 kts | 155° |
| 2026-05-07 19:03 | 41.92578 | -70.82902 | 15852 ft | 403 kts | 155° |
| 2026-05-07 19:03 | 41.90271 | -70.80756 | 16302 ft | 405 kts | 155° |
| 2026-05-07 19:03 | 41.87905 | -70.78746 | 16726 ft | 398 kts | 163° |
| 2026-05-07 19:04 | 41.85365 | -70.77460 | 17140 ft | 383 kts | 177° |
| 2026-05-07 19:04 | 41.82775 | -70.77089 | 17555 ft | 369 kts | 190° |
| 2026-05-07 19:04 | 41.80281 | -70.77549 | 17952 ft | 358 kts | 202° |
| 2026-05-07 19:04 | 41.77988 | -70.78743 | 18321 ft | 350 kts | 214° |
| 2026-05-07 19:05 | 41.75873 | -70.80339 | 18742 ft | 348 kts | 217° |
| 2026-05-07 19:05 | 41.73780 | -70.81975 | 19181 ft | 348 kts | 217° |
| 2026-05-07 19:05 | 41.71695 | -70.83579 | 19623 ft | 347 kts | 217° |
| 2026-05-07 19:05 | 41.70309 | -70.84644 | 19913 ft | 347 kts | 217° |
| 2026-05-07 19:06 | 41.68211 | -70.86237 | 20349 ft | 346 kts | 217° |
| 2026-05-07 19:06 | 41.64012 | -70.89387 | 21213 ft | 345 kts | 217° |
| 2026-05-07 19:06 | 41.62993 | -70.90150 | 21427 ft | 345 kts | 217° |
| 2026-05-07 19:07 | 41.61496 | -70.91270 | 21706 ft | 345 kts | 217° |
| 2026-05-07 19:07 | 41.59694 | -70.92616 | 22041 ft | 345 kts | 217° |
| 2026-05-07 19:07 | 41.57599 | -70.94183 | 22446 ft | 344 kts | 218° |
| 2026-05-07 19:07 | 41.55614 | -70.95926 | 22842 ft | 338 kts | 224° |
| 2026-05-07 19:08 | 41.53932 | -70.98002 | 23225 ft | 332 kts | 232° |
| 2026-05-07 19:08 | 41.52533 | -71.00436 | 23560 ft | 329 kts | 238° |
| 2026-05-07 19:08 | 41.51398 | -71.02723 | 23816 ft | 330 kts | 239° |
| 2026-05-07 19:08 | 41.50511 | -71.04527 | 24014 ft | 330 kts | 238° |
| 2026-05-07 19:09 | 41.49246 | -71.07089 | 24299 ft | 331 kts | 238° |
| 2026-05-07 19:09 | 41.47975 | -71.09649 | 24575 ft | 331 kts | 238° |
| 2026-05-07 19:09 | 41.47241 | -71.11121 | 24722 ft | 332 kts | 238° |
| 2026-05-07 19:09 | 41.45954 | -71.13687 | 24975 ft | 333 kts | 238° |
| 2026-05-07 19:10 | 41.44664 | -71.16259 | 25239 ft | 333 kts | 238° |
| 2026-05-07 19:10 | 41.43376 | -71.18828 | 25497 ft | 334 kts | 238° |
| 2026-05-07 19:10 | 41.42080 | -71.21406 | 25744 ft | 335 kts | 238° |
| 2026-05-07 19:10 | 41.40782 | -71.23989 | 25986 ft | 336 kts | 238° |
| 2026-05-07 19:11 | 41.39476 | -71.26576 | 26222 ft | 337 kts | 238° |
| 2026-05-07 19:11 | 41.38168 | -71.29173 | 26459 ft | 338 kts | 238° |
| 2026-05-07 19:11 | 41.36903 | -71.31678 | 26672 ft | 339 kts | 238° |
| 2026-05-07 19:11 | 41.35601 | -71.34255 | 26897 ft | 340 kts | 238° |
| 2026-05-07 19:12 | 41.34267 | -71.36904 | 27129 ft | 341 kts | 238° |
| 2026-05-07 19:12 | 41.32943 | -71.39522 | 27369 ft | 341 kts | 238° |
| 2026-05-07 19:12 | 41.31617 | -71.42146 | 27582 ft | 342 kts | 238° |
| 2026-05-07 19:12 | 41.30308 | -71.44731 | 27813 ft | 342 kts | 238° |
| 2026-05-07 19:13 | 41.28965 | -71.47388 | 28063 ft | 341 kts | 238° |
| 2026-05-07 19:13 | 41.27644 | -71.49993 | 28339 ft | 340 kts | 238° |
| 2026-05-07 19:13 | 41.26339 | -71.52569 | 28608 ft | 339 kts | 238° |
| 2026-05-07 19:13 | 41.25026 | -71.55155 | 28883 ft | 337 kts | 238° |
| 2026-05-07 19:14 | 41.23716 | -71.57732 | 29165 ft | 336 kts | 238° |
| 2026-05-07 19:14 | 41.22411 | -71.60295 | 29446 ft | 334 kts | 238° |
| 2026-05-07 19:14 | 41.21111 | -71.62850 | 29712 ft | 333 kts | 238° |
| 2026-05-07 19:14 | 41.19816 | -71.65392 | 29950 ft | 332 kts | 238° |
| 2026-05-07 19:15 | 41.18523 | -71.67932 | 30149 ft | 331 kts | 238° |
| 2026-05-07 19:15 | 41.17262 | -71.70405 | 30339 ft | 330 kts | 238° |
| 2026-05-07 19:15 | 41.15972 | -71.72927 | 30527 ft | 330 kts | 238° |
| 2026-05-07 19:15 | 41.14683 | -71.75446 | 30715 ft | 329 kts | 238° |
| 2026-05-07 19:16 | 41.13402 | -71.77959 | 30913 ft | 329 kts | 238° |
| 2026-05-07 19:16 | 41.12127 | -71.80471 | 31092 ft | 328 kts | 239° |
| 2026-05-07 19:16 | 41.10871 | -71.82950 | 31261 ft | 327 kts | 239° |
| 2026-05-07 19:16 | 41.09599 | -71.85452 | 31416 ft | 327 kts | 239° |
| 2026-05-07 19:17 | 41.08329 | -71.87945 | 31575 ft | 326 kts | 239° |
| 2026-05-07 19:17 | 41.07057 | -71.90439 | 31741 ft | 326 kts | 239° |
| 2026-05-07 19:17 | 41.04865 | -71.94733 | 31971 ft | 326 kts | 239° |
| 2026-05-07 19:18 | 41.03630 | -71.97243 | 32149 ft | 324 kts | 241° |
| 2026-05-07 19:18 | 41.02593 | -71.99868 | 32313 ft | 323 kts | 245° |
| 2026-05-07 19:18 | 41.01643 | -72.02568 | 32484 ft | 323 kts | 245° |
| 2026-05-07 19:18 | 41.00703 | -72.05263 | 32655 ft | 322 kts | 245° |
| 2026-05-07 19:19 | 40.99763 | -72.07947 | 32818 ft | 321 kts | 245° |
| 2026-05-07 19:19 | 40.98822 | -72.10626 | 32969 ft | 320 kts | 245° |
| 2026-05-07 19:19 | 40.97882 | -72.13298 | 33123 ft | 320 kts | 245° |
| 2026-05-07 19:19 | 40.96940 | -72.15967 | 33273 ft | 319 kts | 245° |
| 2026-05-07 19:20 | 40.96065 | -72.18442 | 33401 ft | 319 kts | 245° |
| 2026-05-07 19:20 | 40.95122 | -72.21101 | 33528 ft | 319 kts | 245° |
| 2026-05-07 19:20 | 40.94182 | -72.23756 | 33661 ft | 318 kts | 245° |
| 2026-05-07 19:20 | 40.93241 | -72.26409 | 33785 ft | 318 kts | 245° |
| 2026-05-07 19:21 | 40.92270 | -72.29032 | 33900 ft | 318 kts | 243° |
| 2026-05-07 19:21 | 40.91088 | -72.31512 | 34001 ft | 320 kts | 237° |
| 2026-05-07 19:21 | 40.89639 | -72.33764 | 34102 ft | 323 kts | 232° |
| 2026-05-07 19:21 | 40.88041 | -72.35867 | 34197 ft | 324 kts | 231° |
| 2026-05-07 19:22 | 40.84822 | -72.40027 | 34365 ft | 324 kts | 231° |
| 2026-05-07 19:22 | 40.81631 | -72.44169 | 34528 ft | 323 kts | 231° |
| 2026-05-07 19:23 | 40.78274 | -72.48172 | 34681 ft | 327 kts | 227° |
| 2026-05-07 19:23 | 40.74750 | -72.51981 | 34808 ft | 327 kts | 227° |
| 2026-05-07 19:24 | 40.71828 | -72.55142 | 34904 ft | 327 kts | 227° |
| 2026-05-07 19:24 | 40.68470 | -72.59057 | 35000 ft | 322 kts | 233° |
| 2026-05-07 19:25 | 40.65613 | -72.63565 | 35141 ft | 320 kts | 236° |
| 2026-05-07 19:25 | 40.62816 | -72.68067 | 35260 ft | 320 kts | 236° |
| 2026-05-07 19:26 | 40.59967 | -72.72622 | 35380 ft | 320 kts | 236° |
| 2026-05-07 19:26 | 40.57155 | -72.77111 | 35498 ft | 319 kts | 236° |
| 2026-05-07 19:27 | 40.54326 | -72.81618 | 35612 ft | 319 kts | 235° |
| 2026-05-07 19:27 | 40.51492 | -72.86120 | 35713 ft | 319 kts | 235° |
| 2026-05-07 19:28 | 40.48664 | -72.90616 | 35790 ft | 319 kts | 236° |
| 2026-05-07 19:28 | 40.45830 | -72.95113 | 35860 ft | 320 kts | 235° |
| 2026-05-07 19:29 | 40.42979 | -72.99620 | 35864 ft | 321 kts | 235° |
| 2026-05-07 19:29 | 40.40124 | -73.04130 | 35865 ft | 321 kts | 235° |
| 2026-05-07 19:30 | 40.37268 | -73.08637 | 35859 ft | 321 kts | 235° |
| 2026-05-07 19:30 | 40.34411 | -73.13139 | 35855 ft | 321 kts | 235° |
| 2026-05-07 19:31 | 40.31562 | -73.17628 | 35861 ft | 322 kts | 235° |
| 2026-05-07 19:31 | 40.28685 | -73.22149 | 35869 ft | 324 kts | 235° |
| 2026-05-07 19:32 | 40.25804 | -73.26669 | 35867 ft | 321 kts | 235° |
| 2026-05-07 19:32 | 40.22936 | -73.31168 | 35869 ft | 322 kts | 235° |
| 2026-05-07 19:33 | 40.20055 | -73.35676 | 35869 ft | 324 kts | 235° |
| 2026-05-07 19:33 | 40.17180 | -73.40158 | 35868 ft | 321 kts | 235° |
| 2026-05-07 19:34 | 40.14300 | -73.44645 | 35868 ft | 323 kts | 235° |
| 2026-05-07 19:34 | 40.11402 | -73.49159 | 35868 ft | 325 kts | 235° |
| 2026-05-07 19:35 | 40.08500 | -73.53670 | 35865 ft | 322 kts | 235° |
| 2026-05-07 19:35 | 40.05616 | -73.58156 | 35874 ft | 323 kts | 235° |
| 2026-05-07 19:36 | 40.02715 | -73.62656 | 35876 ft | 325 kts | 235° |
| 2026-05-07 19:36 | 39.99810 | -73.67148 | 35868 ft | 322 kts | 235° |
| 2026-05-07 19:37 | 39.96717 | -73.71431 | 35875 ft | 331 kts | 227° |
| 2026-05-07 19:37 | 39.92660 | -73.74558 | 35865 ft | 349 kts | 215° |
| 2026-05-07 19:38 | 39.88173 | -73.76900 | 35867 ft | 348 kts | 214° |
| 2026-05-07 19:38 | 39.83670 | -73.79264 | 35871 ft | 350 kts | 214° |
| 2026-05-07 19:39 | 39.79154 | -73.81663 | 35869 ft | 351 kts | 214° |
| 2026-05-07 19:39 | 39.74655 | -73.84050 | 35869 ft | 349 kts | 214° |
| 2026-05-07 19:40 | 39.70152 | -73.86444 | 35872 ft | 351 kts | 214° |
| 2026-05-07 19:40 | 39.65618 | -73.88847 | 35870 ft | 351 kts | 214° |
| 2026-05-07 19:41 | 39.61111 | -73.91232 | 35869 ft | 350 kts | 214° |
| 2026-05-07 19:41 | 39.56577 | -73.93630 | 35871 ft | 353 kts | 214° |
| 2026-05-07 19:42 | 39.52025 | -73.96028 | 35872 ft | 351 kts | 214° |
| 2026-05-07 19:42 | 39.47510 | -73.98406 | 35873 ft | 352 kts | 214° |
| 2026-05-07 19:43 | 39.42967 | -74.00825 | 35875 ft | 351 kts | 216° |
| 2026-05-07 19:43 | 39.38991 | -74.04092 | 35876 ft | 333 kts | 227° |
| 2026-05-07 19:44 | 39.35481 | -74.07970 | 35881 ft | 333 kts | 228° |
| 2026-05-07 19:44 | 39.31934 | -74.11866 | 35881 ft | 335 kts | 228° |
| 2026-05-07 19:45 | 39.28392 | -74.15730 | 35881 ft | 333 kts | 228° |
| 2026-05-07 19:45 | 39.24833 | -74.19606 | 35885 ft | 335 kts | 228° |
| 2026-05-07 19:46 | 39.21275 | -74.23474 | 35875 ft | 335 kts | 228° |
| 2026-05-07 19:46 | 39.17720 | -74.27333 | 35879 ft | 334 kts | 228° |
| 2026-05-07 19:47 | 39.14146 | -74.31208 | 35882 ft | 337 kts | 228° |
| 2026-05-07 19:47 | 39.10562 | -74.35103 | 35880 ft | 336 kts | 228° |
| 2026-05-07 19:48 | 39.06981 | -74.38982 | 35900 ft | 338 kts | 228° |
| 2026-05-07 19:48 | 39.03401 | -74.42848 | 35886 ft | 336 kts | 228° |
| 2026-05-07 19:49 | 38.99798 | -74.46733 | 35897 ft | 337 kts | 228° |
| 2026-05-07 19:49 | 38.96213 | -74.50593 | 35895 ft | 339 kts | 228° |
| 2026-05-07 19:50 | 38.92682 | -74.54519 | 35898 ft | 334 kts | 230° |
| 2026-05-07 19:50 | 38.89232 | -74.58565 | 35902 ft | 337 kts | 230° |
| 2026-05-07 19:51 | 38.85777 | -74.62610 | 35905 ft | 334 kts | 230° |
| 2026-05-07 19:51 | 38.82333 | -74.66643 | 35900 ft | 337 kts | 230° |
| 2026-05-07 19:52 | 38.79447 | -74.70013 | 35896 ft | 338 kts | 230° |
| 2026-05-07 19:52 | 38.75989 | -74.74043 | 35891 ft | 335 kts | 230° |
| 2026-05-07 19:53 | 38.71793 | -74.78546 | 35895 ft | 341 kts | 227° |
| 2026-05-07 19:53 | 38.68108 | -74.82374 | 35900 ft | 339 kts | 227° |
| 2026-05-07 19:54 | 38.65043 | -74.85562 | 35901 ft | 339 kts | 227° |
| 2026-05-07 19:54 | 38.61393 | -74.89362 | 35904 ft | 342 kts | 227° |
| 2026-05-07 19:55 | 38.57715 | -74.93178 | 35901 ft | 339 kts | 227° |
| 2026-05-07 19:55 | 38.54044 | -74.96991 | 35892 ft | 342 kts | 227° |
| 2026-05-07 19:56 | 38.50433 | -75.00932 | 35895 ft | 340 kts | 229° |
| 2026-05-07 19:56 | 38.46879 | -75.04875 | 35902 ft | 339 kts | 228° |
| 2026-05-07 19:57 | 38.43090 | -75.08548 | 35905 ft | 344 kts | 226° |
| 2026-05-07 19:57 | 38.39235 | -75.12203 | 35904 ft | 344 kts | 226° |
| 2026-05-07 19:58 | 38.35427 | -75.15813 | 35907 ft | 344 kts | 226° |
| 2026-05-07 19:58 | 38.31580 | -75.19461 | 35914 ft | 346 kts | 226° |
| 2026-05-07 19:59 | 38.27724 | -75.23111 | 35906 ft | 343 kts | 226° |
| 2026-05-07 19:59 | 38.23880 | -75.26749 | 35906 ft | 345 kts | 226° |
| 2026-05-07 20:00 | 38.20004 | -75.30412 | 35907 ft | 348 kts | 226° |
| 2026-05-07 20:00 | 38.16141 | -75.34055 | 35900 ft | 344 kts | 226° |
| 2026-05-07 20:01 | 38.12305 | -75.37673 | 35899 ft | 347 kts | 226° |
| 2026-05-07 20:01 | 38.08424 | -75.41328 | 35896 ft | 345 kts | 226° |
| 2026-05-07 20:02 | 38.04540 | -75.44932 | 35898 ft | 348 kts | 225° |
| 2026-05-07 20:02 | 38.00536 | -75.48433 | 35897 ft | 349 kts | 225° |
| 2026-05-07 20:03 | 37.96551 | -75.51897 | 35893 ft | 348 kts | 225° |
| 2026-05-07 20:03 | 37.92549 | -75.55387 | 35895 ft | 350 kts | 225° |
| 2026-05-07 20:04 | 37.88507 | -75.58904 | 35895 ft | 352 kts | 225° |
| 2026-05-07 20:04 | 37.84458 | -75.62358 | 35896 ft | 354 kts | 222° |
| 2026-05-07 20:05 | 37.79964 | -75.65119 | 35895 ft | 366 kts | 216° |
| 2026-05-07 20:05 | 37.75302 | -75.67733 | 35888 ft | 365 kts | 216° |
| 2026-05-07 20:06 | 37.70673 | -75.70349 | 35886 ft | 365 kts | 217° |
| 2026-05-07 20:06 | 37.66030 | -75.72988 | 35895 ft | 367 kts | 217° |
| 2026-05-07 20:07 | 37.61379 | -75.75631 | 35893 ft | 364 kts | 217° |
| 2026-05-07 20:07 | 37.56739 | -75.78263 | 35892 ft | 367 kts | 217° |
| 2026-05-07 20:08 | 37.52102 | -75.80886 | 35891 ft | 369 kts | 217° |
| 2026-05-07 20:08 | 37.47431 | -75.83519 | 35888 ft | 366 kts | 217° |
| 2026-05-07 20:09 | 37.42765 | -75.86155 | 35887 ft | 369 kts | 217° |
| 2026-05-07 20:10 | 37.35738 | -75.90106 | 35883 ft | 367 kts | 217° |
| 2026-05-07 20:10 | 37.31059 | -75.92742 | 35892 ft | 369 kts | 217° |
| 2026-05-07 20:11 | 37.26378 | -75.95373 | 35875 ft | 372 kts | 217° |
| 2026-05-07 20:11 | 37.21677 | -75.98013 | 35877 ft | 369 kts | 217° |
| 2026-05-07 20:12 | 37.16978 | -76.00644 | 35872 ft | 372 kts | 216° |
| 2026-05-07 20:12 | 37.12237 | -76.03313 | 35881 ft | 370 kts | 218° |
| 2026-05-07 20:13 | 37.07772 | -76.06325 | 35879 ft | 364 kts | 220° |
| 2026-05-07 20:13 | 37.03332 | -76.09407 | 35878 ft | 366 kts | 220° |
| 2026-05-07 20:14 | 36.98860 | -76.12496 | 35878 ft | 366 kts | 220° |
| 2026-05-07 20:14 | 36.94395 | -76.15574 | 35874 ft | 367 kts | 220° |
| 2026-05-07 20:15 | 36.89904 | -76.18668 | 35877 ft | 370 kts | 220° |
| 2026-05-07 20:15 | 36.85424 | -76.21742 | 35876 ft | 367 kts | 220° |
| 2026-05-07 20:16 | 36.80924 | -76.24828 | 35881 ft | 370 kts | 220° |
| 2026-05-07 20:16 | 36.76397 | -76.27934 | 35906 ft | 369 kts | 220° |
| 2026-05-07 20:17 | 36.71914 | -76.31001 | 35909 ft | 371 kts | 220° |
| 2026-05-07 20:17 | 36.67379 | -76.34099 | 35906 ft | 372 kts | 220° |
| 2026-05-07 20:18 | 36.62855 | -76.37186 | 35905 ft | 371 kts | 220° |
| 2026-05-07 20:18 | 36.58306 | -76.40288 | 35905 ft | 373 kts | 220° |
| 2026-05-07 20:19 | 36.53771 | -76.43374 | 35902 ft | 371 kts | 220° |
| 2026-05-07 20:19 | 36.49218 | -76.46465 | 35898 ft | 373 kts | 220° |
| 2026-05-07 20:20 | 36.44709 | -76.49520 | 35894 ft | 371 kts | 220° |
| 2026-05-07 20:20 | 36.40158 | -76.52609 | 35895 ft | 374 kts | 220° |
| 2026-05-07 20:21 | 36.35615 | -76.55682 | 35879 ft | 371 kts | 220° |
| 2026-05-07 20:21 | 36.31059 | -76.58764 | 35879 ft | 375 kts | 220° |
| 2026-05-07 20:22 | 36.26505 | -76.61834 | 35877 ft | 370 kts | 220° |
| 2026-05-07 20:22 | 36.21944 | -76.64908 | 35877 ft | 374 kts | 220° |
| 2026-05-07 20:23 | 36.17385 | -76.67974 | 35874 ft | 371 kts | 221° |
| 2026-05-07 20:23 | 36.12867 | -76.71019 | 35883 ft | 373 kts | 220° |
| 2026-05-07 20:24 | 36.08321 | -76.74070 | 35877 ft | 371 kts | 221° |
| 2026-05-07 20:24 | 36.03759 | -76.77131 | 35873 ft | 372 kts | 220° |
| 2026-05-07 20:25 | 35.99213 | -76.80175 | 35870 ft | 372 kts | 220° |
| 2026-05-07 20:25 | 35.94643 | -76.83234 | 35867 ft | 372 kts | 220° |
| 2026-05-07 20:26 | 35.90097 | -76.86225 | 35855 ft | 375 kts | 219° |
| 2026-05-07 20:26 | 35.85409 | -76.89121 | 35862 ft | 377 kts | 219° |
| 2026-05-07 20:27 | 35.80738 | -76.91994 | 35865 ft | 376 kts | 219° |
| 2026-05-07 20:27 | 35.76033 | -76.94894 | 35860 ft | 377 kts | 219° |
| 2026-05-07 20:28 | 35.71353 | -76.97769 | 35827 ft | 377 kts | 219° |
| 2026-05-07 20:28 | 35.66648 | -77.00661 | 35801 ft | 377 kts | 219° |
| 2026-05-07 20:29 | 35.61964 | -77.03532 | 35808 ft | 377 kts | 219° |
| 2026-05-07 20:29 | 35.57251 | -77.06418 | 35807 ft | 377 kts | 219° |
| 2026-05-07 20:30 | 35.52559 | -77.09286 | 35808 ft | 377 kts | 219° |
| 2026-05-07 20:30 | 35.47871 | -77.12150 | 35809 ft | 379 kts | 219° |
| 2026-05-07 20:31 | 35.43165 | -77.15013 | 35816 ft | 378 kts | 218° |
| 2026-05-07 20:31 | 35.38443 | -77.17900 | 35830 ft | 380 kts | 218° |
| 2026-05-07 20:32 | 35.33729 | -77.20769 | 35836 ft | 378 kts | 218° |
| 2026-05-07 20:32 | 35.28995 | -77.23649 | 35845 ft | 381 kts | 218° |
| 2026-05-07 20:33 | 35.24264 | -77.26518 | 35842 ft | 379 kts | 218° |
| 2026-05-07 20:33 | 35.19508 | -77.29396 | 35844 ft | 381 kts | 218° |
| 2026-05-07 20:34 | 35.14770 | -77.32258 | 35843 ft | 380 kts | 218° |
| 2026-05-07 20:34 | 35.10011 | -77.35138 | 35845 ft | 381 kts | 218° |
| 2026-05-07 20:35 | 35.05302 | -77.37980 | 35850 ft | 381 kts | 218° |
| 2026-05-07 20:35 | 35.00526 | -77.40861 | 35851 ft | 384 kts | 218° |
| 2026-05-07 20:36 | 34.95756 | -77.43723 | 35840 ft | 382 kts | 218° |
| 2026-05-07 20:36 | 34.90971 | -77.46602 | 35844 ft | 385 kts | 218° |
| 2026-05-07 20:37 | 34.86154 | -77.49500 | 35834 ft | 385 kts | 218° |
| 2026-05-07 20:37 | 34.81355 | -77.52383 | 35834 ft | 386 kts | 218° |
| 2026-05-07 20:38 | 34.76541 | -77.55269 | 35836 ft | 387 kts | 218° |
| 2026-05-07 20:38 | 34.71715 | -77.58154 | 35839 ft | 388 kts | 217° |
| 2026-05-07 20:39 | 34.66850 | -77.61059 | 35836 ft | 389 kts | 217° |
| 2026-05-07 20:39 | 34.62000 | -77.63951 | 35844 ft | 389 kts | 217° |
| 2026-05-07 20:40 | 34.57943 | -77.66365 | 35850 ft | 392 kts | 217° |
| 2026-05-07 20:40 | 34.52649 | -77.68447 | 35856 ft | 410 kts | 205° |
| 2026-05-07 20:41 | 34.47009 | -77.69822 | 35852 ft | 415 kts | 204° |
| 2026-05-07 20:41 | 34.41379 | -77.71216 | 35843 ft | 412 kts | 204° |
| 2026-05-07 20:42 | 34.35734 | -77.72653 | 35840 ft | 416 kts | 204° |
| 2026-05-07 20:42 | 34.30072 | -77.74088 | 35833 ft | 414 kts | 204° |
| 2026-05-07 20:43 | 34.24403 | -77.75529 | 35832 ft | 418 kts | 204° |
| 2026-05-07 20:43 | 34.18741 | -77.76959 | 35831 ft | 417 kts | 204° |
| 2026-05-07 20:44 | 34.13037 | -77.78404 | 35839 ft | 420 kts | 204° |
| 2026-05-07 20:44 | 34.07327 | -77.79843 | 35840 ft | 418 kts | 203° |
| 2026-05-07 20:45 | 34.01645 | -77.81279 | 35848 ft | 421 kts | 203° |
| 2026-05-07 20:45 | 33.95923 | -77.82721 | 35843 ft | 419 kts | 203° |
| 2026-05-07 20:46 | 33.90186 | -77.84168 | 35843 ft | 423 kts | 203° |
| 2026-05-07 20:46 | 33.84440 | -77.85610 | 35846 ft | 420 kts | 203° |
| 2026-05-07 20:47 | 33.78707 | -77.87108 | 35853 ft | 420 kts | 205° |
| 2026-05-07 20:47 | 33.73123 | -77.88974 | 35860 ft | 416 kts | 206° |
| 2026-05-07 20:48 | 33.67526 | -77.90883 | 35861 ft | 419 kts | 206° |
| 2026-05-07 20:48 | 33.61926 | -77.92775 | 35859 ft | 418 kts | 206° |
| 2026-05-07 20:49 | 33.56343 | -77.94671 | 35871 ft | 421 kts | 206° |
| 2026-05-07 20:49 | 33.50719 | -77.96575 | 35867 ft | 419 kts | 206° |
| 2026-05-07 20:50 | 33.45078 | -77.98483 | 35876 ft | 423 kts | 206° |
| 2026-05-07 20:50 | 33.39437 | -78.00380 | 35875 ft | 421 kts | 206° |
| 2026-05-07 20:51 | 33.33767 | -78.02295 | 35878 ft | 424 kts | 206° |
| 2026-05-07 20:51 | 33.28115 | -78.04210 | 35879 ft | 422 kts | 205° |
| 2026-05-07 20:52 | 33.22474 | -78.06112 | 35879 ft | 424 kts | 205° |
| 2026-05-07 20:52 | 33.16806 | -78.08011 | 35877 ft | 424 kts | 205° |
| 2026-05-07 20:53 | 33.11109 | -78.09922 | 35881 ft | 424 kts | 205° |
| 2026-05-07 20:53 | 33.05432 | -78.11819 | 35877 ft | 425 kts | 205° |
| 2026-05-07 20:54 | 32.99711 | -78.13733 | 35884 ft | 427 kts | 205° |
| 2026-05-07 20:54 | 32.93994 | -78.15640 | 35890 ft | 428 kts | 205° |
| 2026-05-07 20:55 | 32.88278 | -78.17550 | 35888 ft | 428 kts | 204° |
| 2026-05-07 20:55 | 32.82526 | -78.19464 | 35890 ft | 431 kts | 204° |
| 2026-05-07 20:56 | 32.76750 | -78.21382 | 35892 ft | 429 kts | 204° |
| 2026-05-07 20:56 | 32.70966 | -78.23304 | 35898 ft | 433 kts | 204° |
| 2026-05-07 20:57 | 32.65180 | -78.25223 | 35900 ft | 432 kts | 204° |
| 2026-05-07 20:57 | 32.59363 | -78.27147 | 35906 ft | 434 kts | 204° |
| 2026-05-07 20:58 | 32.53583 | -78.29046 | 35904 ft | 434 kts | 204° |
| 2026-05-07 20:58 | 32.47750 | -78.30969 | 35911 ft | 434 kts | 204° |
| 2026-05-07 20:59 | 32.41937 | -78.32888 | 35909 ft | 436 kts | 204° |
| 2026-05-07 20:59 | 32.36084 | -78.34821 | 35913 ft | 435 kts | 204° |
| 2026-05-07 21:00 | 32.30253 | -78.36746 | 35917 ft | 437 kts | 204° |
| 2026-05-07 21:00 | 32.24399 | -78.38669 | 35915 ft | 435 kts | 204° |
| 2026-05-07 21:01 | 32.18529 | -78.40590 | 35921 ft | 439 kts | 204° |
| 2026-05-07 21:01 | 32.12669 | -78.42512 | 35922 ft | 437 kts | 204° |
| 2026-05-07 21:02 | 32.06807 | -78.44431 | 35926 ft | 439 kts | 203° |
| 2026-05-07 21:02 | 32.00938 | -78.46350 | 35927 ft | 439 kts | 203° |
| 2026-05-07 21:03 | 31.95028 | -78.48276 | 35931 ft | 439 kts | 203° |
| 2026-05-07 21:03 | 31.89136 | -78.50199 | 35935 ft | 441 kts | 203° |
| 2026-05-07 21:04 | 31.83238 | -78.52114 | 35941 ft | 438 kts | 203° |
| 2026-05-07 21:04 | 31.77330 | -78.54034 | 35944 ft | 441 kts | 203° |
| 2026-05-07 21:05 | 31.71475 | -78.55935 | 35940 ft | 440 kts | 203° |
| 2026-05-07 21:05 | 31.65554 | -78.57851 | 35946 ft | 440 kts | 203° |
| 2026-05-07 21:06 | 31.59664 | -78.59760 | 35932 ft | 441 kts | 203° |
| 2026-05-07 21:06 | 31.53729 | -78.61682 | 35946 ft | 440 kts | 203° |
| 2026-05-07 21:07 | 31.47861 | -78.63692 | 35951 ft | 441 kts | 204° |
| 2026-05-07 21:07 | 31.41966 | -78.65726 | 35948 ft | 439 kts | 204° |
| 2026-05-07 21:08 | 31.36082 | -78.67738 | 35952 ft | 443 kts | 204° |
| 2026-05-07 21:08 | 31.30229 | -78.69737 | 35953 ft | 440 kts | 204° |
| 2026-05-07 21:09 | 31.24293 | -78.71763 | 35957 ft | 441 kts | 204° |
| 2026-05-07 21:09 | 31.18447 | -78.73755 | 35958 ft | 442 kts | 204° |
| 2026-05-07 21:10 | 31.12547 | -78.75766 | 35958 ft | 440 kts | 204° |
| 2026-05-07 21:10 | 31.06637 | -78.77776 | 35959 ft | 443 kts | 204° |
| 2026-05-07 21:11 | 31.00725 | -78.79777 | 35955 ft | 441 kts | 204° |
| 2026-05-07 21:11 | 30.91857 | -78.82785 | 35954 ft | 441 kts | 204° |
| 2026-05-07 21:12 | 30.85977 | -78.84772 | 35956 ft | 443 kts | 204° |
| 2026-05-07 21:12 | 30.80067 | -78.86769 | 35960 ft | 442 kts | 204° |
| 2026-05-07 21:13 | 30.74145 | -78.88771 | 35963 ft | 442 kts | 204° |
| 2026-05-07 21:13 | 30.68234 | -78.90760 | 35967 ft | 444 kts | 204° |
| 2026-05-07 21:14 | 30.62313 | -78.92756 | 35965 ft | 441 kts | 204° |
| 2026-05-07 21:14 | 30.56398 | -78.94743 | 35966 ft | 444 kts | 204° |
| 2026-05-07 21:15 | 30.50481 | -78.96726 | 35969 ft | 442 kts | 204° |
| 2026-05-07 21:15 | 30.44548 | -78.98722 | 35970 ft | 443 kts | 204° |
| 2026-05-07 21:16 | 30.38760 | -79.00998 | 35975 ft | 438 kts | 208° |
| 2026-05-07 21:16 | 30.33096 | -79.03490 | 35977 ft | 436 kts | 208° |
| 2026-05-07 21:17 | 30.27399 | -79.05982 | 35971 ft | 439 kts | 208° |
| 2026-05-07 21:17 | 30.21698 | -79.08469 | 35972 ft | 437 kts | 208° |
| 2026-05-07 21:18 | 30.15991 | -79.10951 | 35977 ft | 437 kts | 208° |
| 2026-05-07 21:18 | 30.10303 | -79.13426 | 35971 ft | 439 kts | 208° |
| 2026-05-07 21:19 | 30.04598 | -79.15905 | 35978 ft | 436 kts | 208° |
| 2026-05-07 21:19 | 29.98933 | -79.18365 | 35978 ft | 438 kts | 208° |
| 2026-05-07 21:20 | 29.93229 | -79.20832 | 35980 ft | 438 kts | 208° |
| 2026-05-07 21:20 | 29.87510 | -79.23304 | 35979 ft | 437 kts | 208° |
| 2026-05-07 21:21 | 29.81803 | -79.25772 | 35981 ft | 440 kts | 208° |
| 2026-05-07 21:21 | 29.76110 | -79.28232 | 35982 ft | 439 kts | 208° |
| 2026-05-07 21:22 | 29.70360 | -79.30713 | 35982 ft | 440 kts | 208° |
| 2026-05-07 21:22 | 29.64623 | -79.33178 | 35980 ft | 442 kts | 208° |
| 2026-05-07 21:23 | 29.58861 | -79.35657 | 35977 ft | 441 kts | 208° |
| 2026-05-07 21:23 | 29.53090 | -79.38139 | 35983 ft | 442 kts | 208° |
| 2026-05-07 21:24 | 29.47360 | -79.40597 | 35987 ft | 444 kts | 208° |
| 2026-05-07 21:24 | 29.41582 | -79.43068 | 35985 ft | 442 kts | 208° |
| 2026-05-07 21:25 | 29.35791 | -79.45548 | 35986 ft | 444 kts | 208° |
| 2026-05-07 21:25 | 29.30021 | -79.48014 | 35980 ft | 443 kts | 208° |
| 2026-05-07 21:26 | 29.24231 | -79.50488 | 35986 ft | 444 kts | 207° |
| 2026-05-07 21:26 | 29.18445 | -79.52952 | 35985 ft | 444 kts | 207° |
| 2026-05-07 21:27 | 29.12648 | -79.55423 | 35988 ft | 444 kts | 207° |
| 2026-05-07 21:27 | 29.06893 | -79.57989 | 35989 ft | 443 kts | 210° |
| 2026-05-07 21:28 | 29.01222 | -79.60684 | 35992 ft | 444 kts | 210° |
| 2026-05-07 21:28 | 28.95517 | -79.63395 | 35989 ft | 444 kts | 210° |
| 2026-05-07 21:29 | 28.90741 | -79.65670 | 35994 ft | 444 kts | 209° |
| 2026-05-07 21:29 | 28.85331 | -79.68800 | 35991 ft | 433 kts | 223° |
| 2026-05-07 21:30 | 28.83125 | -79.71084 | 35994 ft | 425 kts | 234° |
| 2026-05-07 21:30 | 28.81319 | -79.73737 | 36000 ft | 421 kts | 239° |
| 2026-05-07 21:30 | 28.77967 | -79.79181 | 35996 ft | 420 kts | 239° |
| 2026-05-07 21:31 | 28.74566 | -79.84605 | 35990 ft | 419 kts | 239° |
| 2026-05-07 21:31 | 28.71133 | -79.90009 | 35988 ft | 421 kts | 239° |
| 2026-05-07 21:32 | 28.67711 | -79.95412 | 35987 ft | 420 kts | 240° |
| 2026-05-07 21:32 | 28.64664 | -80.01065 | 35988 ft | 418 kts | 244° |
| 2026-05-07 21:33 | 28.61714 | -80.06757 | 35984 ft | 417 kts | 244° |
| 2026-05-07 21:33 | 28.60238 | -80.09598 | 35433 ft | 419 kts | 243° |
| 2026-05-07 21:33 | 28.58760 | -80.12433 | 34413 ft | 424 kts | 243° |
| 2026-05-07 21:34 | 28.57229 | -80.15372 | 33339 ft | 428 kts | 243° |
| 2026-05-07 21:34 | 28.55705 | -80.18292 | 32263 ft | 431 kts | 243° |
| 2026-05-07 21:34 | 28.54183 | -80.21202 | 31138 ft | 435 kts | 243° |
| 2026-05-07 21:34 | 28.52632 | -80.24162 | 30054 ft | 438 kts | 243° |
| 2026-05-07 21:35 | 28.51068 | -80.27151 | 28742 ft | 441 kts | 243° |
| 2026-05-07 21:35 | 28.49511 | -80.30181 | 27469 ft | 444 kts | 245° |
| 2026-05-07 21:35 | 28.48177 | -80.33322 | 26507 ft | 439 kts | 248° |
| 2026-05-07 21:35 | 28.46918 | -80.36461 | 25681 ft | 434 kts | 248° |
| 2026-05-07 21:36 | 28.45684 | -80.39565 | 24845 ft | 429 kts | 248° |
| 2026-05-07 21:36 | 28.44466 | -80.42635 | 24007 ft | 424 kts | 248° |
| 2026-05-07 21:36 | 28.43257 | -80.45677 | 23266 ft | 417 kts | 248° |
| 2026-05-07 21:36 | 28.42082 | -80.48618 | 22917 ft | 399 kts | 248° |
| 2026-05-07 21:37 | 28.40952 | -80.51441 | 22730 ft | 392 kts | 248° |